Kauai — WSRH — position and weather

sailwx.info

Track history (hours):
 
Tides and Currents Weather Stations Pressure Air Temp Water Temp Dewpoint Dewpoint Depression Visibility Wind Speed Wind Dir Waves Ship Positions

Kauai

Owner: MATSON NAVIGATION COMPANY, INC, Tacoma, WA. More information available from US FCC via Universal Licensing System and Coast Guard Vessel Documentation Center.

Last reported at 2018-Jun-22 00:00 UTC. Time now 2018-Jun-22 20:33 UTC.
Position N 28°54' W 144°54'.

Type: Cargo ship. MMSI: 366364000.

Wind from 060 at 25 knots

Barometer 1021.6 mb
Air temperature 27.2 ° C
Visibility: greater than 10.8 NM
Dewpoint 24.9 ° C
Water temperature 20.6 ° C

Date/timePositionNaut miles runAvg speedWind from/ knotsBaromVisibWave heightAir tempDewpointWater temp
2018-Jun-22 00:00N 28°54' W 144°54'12821.3 060 / 251021.610.8 27.224.920.6
2018-Jun-21 18:00N 30°00' W 142°48'12420.7 230 / 81022.710.8 23.320.920.0
2018-Jun-21 12:00N 31°00' W 140°42'70120.1 070 / 141021.210.8 17.215.319.4
2018-Jun-20 01:11N 36°07' W 128°06'7919.8
2018-Jun-19 21:13N 36°33' W 126°34'3320.0
2018-Jun-19 19:34N 36°45' W 125°55'619.8
2018-Jun-19 19:16N 36°47' W 125°49'920.0
2018-Jun-19 18:50N 36°50' W 125°39'1320.3
2018-Jun-19 18:12N 36°54' W 125°23'1 3.0
2018-Jun-19 18:00N 36°54' W 125°24'694.6 340 / 231019.2 5.4 13.911.914.4
2018-Jun-19 17:56N 36°56' W 125°17'2920.9
2018-Jun-19 16:32N 37°06' W 124°43'1020.0
2018-Jun-19 16:02N 37°10' W 124°31'119.6
2018-Jun-19 15:58N 37°10' W 124°29'919.8
2018-Jun-19 15:29N 37°13' W 124°18'1420.0
2018-Jun-19 14:46N 37°18' W 124°01'820.3
2018-Jun-19 14:22N 37°21' W 123°51'720.4
2018-Jun-19 14:00N 37°23' W 123°43'1020.4
2018-Jun-19 13:30N 37°27' W 123°31'1020.2
2018-Jun-19 12:59N 37°30' W 123°18'1220.6
2018-Jun-19 12:23N 37°34' W 123°03'820.2
2018-Jun-19 12:00N 37°38' W 122°55'1019.0
2018-Jun-19 11:28N 37°43' W 122°44'613.1
2018-Jun-19 11:00N 37°46' W 122°37'713.8
2018-Jun-19 10:30N 37°49' W 122°29'510.0
2018-Jun-19 10:00N 37°49' W 122°23'4 8.1
2018-Jun-19 09:30N 37°48' W 122°18'0 0.1
2018-Jun-19 08:59N 37°48' W 122°18'0 0.0
2018-Jun-19 08:30N 37°48' W 122°18'0 0.0
2018-Jun-19 07:58N 37°48' W 122°18'0 0.0
2018-Jun-19 07:19N 37°48' W 122°18'0 0.0
2018-Jun-19 06:58N 37°48' W 122°18'0 0.0
2018-Jun-19 06:25N 37°48' W 122°18'0 0.0
2018-Jun-19 05:58N 37°48' W 122°18'0 0.0
2018-Jun-19 05:25N 37°48' W 122°18'0 0.0
2018-Jun-19 04:58N 37°48' W 122°18'0 0.0
2018-Jun-19 04:28N 37°48' W 122°18'0 0.0
2018-Jun-19 03:58N 37°48' W 122°18'0 0.0
2018-Jun-19 03:28N 37°48' W 122°18'0 0.0
2018-Jun-19 02:55N 37°48' W 122°18'0 0.0
2018-Jun-19 02:28N 37°48' W 122°18'0 0.0
2018-Jun-19 01:58N 37°48' W 122°18'0 0.0
2018-Jun-19 01:28N 37°48' W 122°18'0 0.0
2018-Jun-19 00:55N 37°48' W 122°18'0 0.0
2018-Jun-19 00:28N 37°48' W 122°18'0 0.0
2018-Jun-18 23:55N 37°48' W 122°18'0 0.0
2018-Jun-18 23:28N 37°48' W 122°18'0 0.0
2018-Jun-18 22:58N 37°48' W 122°18'0 0.0
2018-Jun-18 22:28N 37°48' W 122°18'0 0.0
2018-Jun-18 21:58N 37°48' W 122°18'0 0.0
2018-Jun-18 21:22N 37°48' W 122°18'0 0.0
2018-Jun-18 20:58N 37°48' W 122°18'0 0.0
2018-Jun-18 20:28N 37°48' W 122°18'0 0.0
2018-Jun-18 19:58N 37°48' W 122°18'0 0.3
2018-Jun-18 19:30N 37°48' W 122°18'3 5.7
2018-Jun-18 19:00N 37°48' W 122°22'611.9
2018-Jun-18 18:30N 37°49' W 122°29'917.2
2018-Jun-18 18:00N 37°46' W 122°39'612.7
2018-Jun-18 17:30N 37°47' W 122°47'816.2
2018-Jun-18 17:00N 37°51' W 122°56'1019.6
2018-Jun-18 16:30N 37°56' W 123°07'1021.2
2018-Jun-18 16:00N 38°03' W 123°17'1122.1
2018-Jun-18 15:30N 38°11' W 123°26'1122.3
2018-Jun-18 15:00N 38°20' W 123°35'1121.9
2018-Jun-18 14:30N 38°28' W 123°44'16221.1
2018-Jun-18 06:50N 40°53' W 125°18'2120.7
2018-Jun-18 05:49N 41°14' W 125°22'721.4
2018-Jun-18 05:30N 41°20' W 125°22'1121.6
2018-Jun-18 05:00N 41°31' W 125°22'1121.5
2018-Jun-18 04:30N 41°42' W 125°22'1221.6
2018-Jun-18 03:58N 41°54' W 125°22'1021.5
2018-Jun-18 03:30N 42°03' W 125°22'1121.9
2018-Jun-18 03:00N 42°15' W 125°22'1921.4
2018-Jun-18 02:06N 42°34' W 125°22'821.3
2018-Jun-18 01:44N 42°42' W 125°22'521.4
2018-Jun-18 01:30N 42°47' W 125°22'1121.4
2018-Jun-18 01:00N 42°57' W 125°22'1121.4
2018-Jun-18 00:30N 43°08' W 125°22'1121.2
2018-Jun-18 00:00N 43°18' W 125°22'1521.1
2018-Jun-17 23:16N 43°34' W 125°22'1020.4
2018-Jun-17 22:46N 43°44' W 125°22'621.6
2018-Jun-17 22:30N 43°50' W 125°22'1121.7
2018-Jun-17 22:00N 44°01' W 125°22'1521.5
2018-Jun-17 21:17N 44°16' W 125°22'1021.8
2018-Jun-17 20:51N 44°26' W 125°22'1021.4
2018-Jun-17 20:22N 44°36' W 125°22'720.2
2018-Jun-17 20:00N 44°43' W 125°22'1121.3
2018-Jun-17 19:30N 44°54' W 125°22'1121.4
2018-Jun-17 19:00N 45°05' W 125°22'1121.3
2018-Jun-17 18:30N 45°15' W 125°22'1121.1
2018-Jun-17 18:00N 45°26' W 125°22'1121.7
2018-Jun-17 17:30N 45°37' W 125°22'1121.7
2018-Jun-17 17:00N 45°48' W 125°22'1121.7
2018-Jun-17 16:30N 45°58' W 125°22'1221.4
2018-Jun-17 15:56N 46°11' W 125°22'921.7
2018-Jun-17 15:30N 46°20' W 125°22'1121.5
2018-Jun-17 15:00N 46°31' W 125°22'1121.3
2018-Jun-17 14:30N 46°41' W 125°22'1121.2
2018-Jun-17 14:00N 46°52' W 125°22'1021.0
2018-Jun-17 13:30N 47°02' W 125°22'1019.8
2018-Jun-17 13:00N 47°12' W 125°21'1020.9
2018-Jun-17 12:30N 47°23' W 125°20'1121.1
2018-Jun-17 12:00N 47°33' W 125°20'1020.7
2018-Jun-17 11:30N 47°44' W 125°21'1021.0
2018-Jun-17 11:00N 47°54' W 125°21'1020.7
2018-Jun-17 10:30N 48°04' W 125°16'1120.9
2018-Jun-17 09:58N 48°15' W 125°11'1020.9
2018-Jun-17 09:30N 48°24' W 125°07'917.3
2018-Jun-17 09:00N 48°31' W 124°59'1121.5
2018-Jun-17 08:30N 48°31' W 124°43'1121.8
2018-Jun-17 08:00N 48°26' W 124°28'1121.9
2018-Jun-17 07:30N 48°21' W 124°13'1121.7
2018-Jun-17 07:00N 48°18' W 123°57'4318.0
2018-Jun-17 04:37N 48°12' W 122°54'820.1
2018-Jun-17 04:13N 48°09' W 122°43'520.0
2018-Jun-17 03:57N 48°04' W 122°39'920.2
2018-Jun-17 03:31N 47°56' W 122°32'1020.1
2018-Jun-17 03:00N 47°47' W 122°26'917.5
2018-Jun-17 02:31N 47°38' W 122°26'5 9.1
2018-Jun-17 02:00N 47°36' W 122°21'1 1.6
2018-Jun-17 01:30N 47°35' W 122°21'0 0.0
2018-Jun-17 01:01N 47°35' W 122°21'0 0.0
2018-Jun-17 00:27N 47°35' W 122°21'0 0.0
2018-Jun-17 00:00N 47°35' W 122°21'0 0.0
2018-Jun-16 23:30N 47°35' W 122°21'0 0.0
2018-Jun-16 23:00N 47°35' W 122°21'0 0.0
2018-Jun-16 22:30N 47°35' W 122°21'0 0.0
2018-Jun-16 22:00N 47°35' W 122°21'0 0.0
2018-Jun-16 21:30N 47°35' W 122°21'0 0.0
2018-Jun-16 21:00N 47°35' W 122°21'0 0.0
2018-Jun-16 20:30N 47°35' W 122°21'0 0.0
2018-Jun-16 20:00N 47°35' W 122°21'0 0.0
2018-Jun-16 19:30N 47°35' W 122°21'0 0.0
2018-Jun-16 19:00N 47°35' W 122°21'0 0.0
2018-Jun-16 18:30N 47°35' W 122°21'0 0.0
2018-Jun-16 17:51N 47°35' W 122°21'0 0.0
2018-Jun-16 17:30N 47°35' W 122°21'0 0.0
2018-Jun-16 17:00N 47°35' W 122°21'0 0.0
2018-Jun-16 16:21N 47°35' W 122°21'0 0.0
2018-Jun-16 16:00N 47°35' W 122°21'0 0.0
2018-Jun-16 15:30N 47°35' W 122°21'0 0.0
2018-Jun-16 15:00N 47°35' W 122°21'0 0.0
2018-Jun-16 14:27N 47°35' W 122°21'0 0.0
2018-Jun-16 13:51N 47°35' W 122°21'0 0.0
2018-Jun-16 13:27N 47°35' W 122°21'0 0.0
2018-Jun-16 13:00N 47°35' W 122°21'0 0.0
2018-Jun-16 12:30N 47°35' W 122°21'0 0.0
2018-Jun-16 12:00N 47°35' W 122°21'0 0.0
2018-Jun-16 11:30N 47°35' W 122°21'0 0.0
2018-Jun-16 11:00N 47°35' W 122°21'0 0.0
2018-Jun-16 10:30N 47°35' W 122°21'0 0.0
2018-Jun-16 10:00N 47°35' W 122°21'0 0.0
2018-Jun-16 09:30N 47°35' W 122°21'0 0.0
2018-Jun-16 09:00N 47°35' W 122°21'0 0.0
2018-Jun-16 08:30N 47°35' W 122°21'0 0.0
2018-Jun-16 08:00N 47°35' W 122°21'0 0.0
2018-Jun-16 07:30N 47°35' W 122°21'0 0.0
2018-Jun-16 07:00N 47°35' W 122°21'0 0.0
2018-Jun-16 06:30N 47°35' W 122°21'0 0.0
2018-Jun-16 06:00N 47°35' W 122°21'0 0.0
2018-Jun-16 05:30N 47°35' W 122°21'0 0.0
2018-Jun-16 05:00N 47°35' W 122°21'0 0.0
2018-Jun-16 04:30N 47°35' W 122°21'0 0.0
2018-Jun-16 04:00N 47°35' W 122°21'0 0.0
2018-Jun-16 03:30N 47°35' W 122°21'0 0.0
2018-Jun-16 03:00N 47°35' W 122°21'0 0.0
2018-Jun-16 02:27N 47°35' W 122°21'0 0.0
2018-Jun-16 02:00N 47°35' W 122°21'0 0.0
2018-Jun-16 01:24N 47°35' W 122°21'0 0.0
2018-Jun-16 01:00N 47°35' W 122°21'0 0.0
2018-Jun-16 00:30N 47°35' W 122°21'0 0.0
2018-Jun-16 00:00N 47°35' W 122°21'0 0.0
2018-Jun-15 23:27N 47°35' W 122°21'0 0.0
2018-Jun-15 23:00N 47°35' W 122°21'0 0.0
2018-Jun-15 22:30N 47°35' W 122°21'0 0.0
2018-Jun-15 22:00N 47°35' W 122°21'1 2.7
2018-Jun-15 21:30N 47°36' W 122°21'612.2
2018-Jun-15 21:00N 47°40' W 122°28'1020.8
2018-Jun-15 20:30N 47°50' W 122°28'1019.8
2018-Jun-15 20:00N 47°59' W 122°36'4616.4
2018-Jun-15 17:10N 48°13' W 123°43'517.9
2018-Jun-15 16:54N 48°13' W 123°50'718.6
2018-Jun-15 16:30N 48°15' W 124°00'919.0
2018-Jun-15 16:00N 48°19' W 124°13'918.7
2018-Jun-15 15:30N 48°23' W 124°26'918.3
2018-Jun-15 15:00N 48°27' W 124°39'918.2
2018-Jun-15 14:30N 48°29' W 124°52'917.6
2018-Jun-15 14:01N 48°25' W 125°04'91820.9
2018-Jun-13 18:00N 38°24' W 141°00'26522.1 160 / 41026.510.8 17.715.018.3
2018-Jun-13 06:00N 35°12' W 144°48'12821.3 200 / 111026.110.8 22.220.520.0
2018-Jun-13 00:00N 33°36' W 146°30'24420.3 160 / 111024.610.8 23.822.219.4
2018-Jun-12 12:00N 30°30' W 149°36'13222.0 200 / 391021.510.8 22.219.721.1
2018-Jun-12 06:00N 28°48' W 151°12'   130 / 281020.0 5.4 24.422.022.8
Track history (hours):
 
Tides and Currents Weather Stations Pressure Air Temp Water Temp Dewpoint Dewpoint Depression Visibility Wind Speed Wind Dir Waves Ship Positions

Kauai

Owner: MATSON NAVIGATION COMPANY, INC, Tacoma, WA. More information available from US FCC via Universal Licensing System and Coast Guard Vessel Documentation Center.

Last reported at 2018-Jun-22 00:00 UTC. Time now 2018-Jun-22 20:33 UTC.
Position N 28°54' W 144°54'.

Type: Cargo ship. MMSI: 366364000.

Wind from 060 at 25 knots

Barometer 1021.6 mb
Air temperature 27.2 ° C
Visibility: greater than 10.8 NM
Dewpoint 24.9 ° C
Water temperature 20.6 ° C

Date/timePositionNaut miles runAvg speedWind from/ knotsBaromVisibWave heightAir tempDewpointWater temp
2018-Jun-22 00:00N 28°54' W 144°54'12821.3 060 / 251021.610.8 27.224.920.6
2018-Jun-21 18:00N 30°00' W 142°48'12420.7 230 / 81022.710.8 23.320.920.0
2018-Jun-21 12:00N 31°00' W 140°42'70120.1 070 / 141021.210.8 17.215.319.4
2018-Jun-20 01:11N 36°07' W 128°06'7919.8
2018-Jun-19 21:13N 36°33' W 126°34'3320.0
2018-Jun-19 19:34N 36°45' W 125°55'619.8
2018-Jun-19 19:16N 36°47' W 125°49'920.0
2018-Jun-19 18:50N 36°50' W 125°39'1320.3
2018-Jun-19 18:12N 36°54' W 125°23'1 3.0
2018-Jun-19 18:00N 36°54' W 125°24'694.6 340 / 231019.2 5.4 13.911.914.4
2018-Jun-19 17:56N 36°56' W 125°17'2920.9
2018-Jun-19 16:32N 37°06' W 124°43'1020.0
2018-Jun-19 16:02N 37°10' W 124°31'119.6
2018-Jun-19 15:58N 37°10' W 124°29'919.8
2018-Jun-19 15:29N 37°13' W 124°18'1420.0
2018-Jun-19 14:46N 37°18' W 124°01'820.3
2018-Jun-19 14:22N 37°21' W 123°51'720.4
2018-Jun-19 14:00N 37°23' W 123°43'1020.4
2018-Jun-19 13:30N 37°27' W 123°31'1020.2
2018-Jun-19 12:59N 37°30' W 123°18'1220.6
2018-Jun-19 12:23N 37°34' W 123°03'820.2
2018-Jun-19 12:00N 37°38' W 122°55'1019.0
2018-Jun-19 11:28N 37°43' W 122°44'613.1
2018-Jun-19 11:00N 37°46' W 122°37'713.8
2018-Jun-19 10:30N 37°49' W 122°29'510.0
2018-Jun-19 10:00N 37°49' W 122°23'4 8.1
2018-Jun-19 09:30N 37°48' W 122°18'0 0.1
2018-Jun-19 08:59N 37°48' W 122°18'0 0.0
2018-Jun-19 08:30N 37°48' W 122°18'0 0.0
2018-Jun-19 07:58N 37°48' W 122°18'0 0.0
2018-Jun-19 07:19N 37°48' W 122°18'0 0.0
2018-Jun-19 06:58N 37°48' W 122°18'0 0.0
2018-Jun-19 06:25N 37°48' W 122°18'0 0.0
2018-Jun-19 05:58N 37°48' W 122°18'0 0.0
2018-Jun-19 05:25N 37°48' W 122°18'0 0.0
2018-Jun-19 04:58N 37°48' W 122°18'0 0.0
2018-Jun-19 04:28N 37°48' W 122°18'0 0.0
2018-Jun-19 03:58N 37°48' W 122°18'0 0.0
2018-Jun-19 03:28N 37°48' W 122°18'0 0.0
2018-Jun-19 02:55N 37°48' W 122°18'0 0.0
2018-Jun-19 02:28N 37°48' W 122°18'0 0.0
2018-Jun-19 01:58N 37°48' W 122°18'0 0.0
2018-Jun-19 01:28N 37°48' W 122°18'0 0.0
2018-Jun-19 00:55N 37°48' W 122°18'0 0.0
2018-Jun-19 00:28N 37°48' W 122°18'0 0.0
2018-Jun-18 23:55N 37°48' W 122°18'0 0.0
2018-Jun-18 23:28N 37°48' W 122°18'0 0.0
2018-Jun-18 22:58N 37°48' W 122°18'0 0.0
2018-Jun-18 22:28N 37°48' W 122°18'0 0.0
2018-Jun-18 21:58N 37°48' W 122°18'0 0.0
2018-Jun-18 21:22N 37°48' W 122°18'0 0.0
2018-Jun-18 20:58N 37°48' W 122°18'0 0.0
2018-Jun-18 20:28N 37°48' W 122°18'0 0.0
2018-Jun-18 19:58N 37°48' W 122°18'0 0.3
2018-Jun-18 19:30N 37°48' W 122°18'3 5.7
2018-Jun-18 19:00N 37°48' W 122°22'611.9
2018-Jun-18 18:30N 37°49' W 122°29'917.2
2018-Jun-18 18:00N 37°46' W 122°39'612.7
2018-Jun-18 17:30N 37°47' W 122°47'816.2
2018-Jun-18 17:00N 37°51' W 122°56'1019.6
2018-Jun-18 16:30N 37°56' W 123°07'1021.2
2018-Jun-18 16:00N 38°03' W 123°17'1122.1
2018-Jun-18 15:30N 38°11' W 123°26'1122.3
2018-Jun-18 15:00N 38°20' W 123°35'1121.9
2018-Jun-18 14:30N 38°28' W 123°44'16221.1
2018-Jun-18 06:50N 40°53' W 125°18'2120.7
2018-Jun-18 05:49N 41°14' W 125°22'721.4
2018-Jun-18 05:30N 41°20' W 125°22'1121.6
2018-Jun-18 05:00N 41°31' W 125°22'1121.5
2018-Jun-18 04:30N 41°42' W 125°22'1221.6
2018-Jun-18 03:58N 41°54' W 125°22'1021.5
2018-Jun-18 03:30N 42°03' W 125°22'1121.9
2018-Jun-18 03:00N 42°15' W 125°22'1921.4
2018-Jun-18 02:06N 42°34' W 125°22'821.3
2018-Jun-18 01:44N 42°42' W 125°22'521.4
2018-Jun-18 01:30N 42°47' W 125°22'1121.4
2018-Jun-18 01:00N 42°57' W 125°22'1121.4
2018-Jun-18 00:30N 43°08' W 125°22'1121.2
2018-Jun-18 00:00N 43°18' W 125°22'1521.1
2018-Jun-17 23:16N 43°34' W 125°22'1020.4
2018-Jun-17 22:46N 43°44' W 125°22'621.6
2018-Jun-17 22:30N 43°50' W 125°22'1121.7
2018-Jun-17 22:00N 44°01' W 125°22'1521.5
2018-Jun-17 21:17N 44°16' W 125°22'1021.8
2018-Jun-17 20:51N 44°26' W 125°22'1021.4
2018-Jun-17 20:22N 44°36' W 125°22'720.2
2018-Jun-17 20:00N 44°43' W 125°22'1121.3
2018-Jun-17 19:30N 44°54' W 125°22'1121.4
2018-Jun-17 19:00N 45°05' W 125°22'1121.3
2018-Jun-17 18:30N 45°15' W 125°22'1121.1
2018-Jun-17 18:00N 45°26' W 125°22'1121.7
2018-Jun-17 17:30N 45°37' W 125°22'1121.7
2018-Jun-17 17:00N 45°48' W 125°22'1121.7
2018-Jun-17 16:30N 45°58' W 125°22'1221.4
2018-Jun-17 15:56N 46°11' W 125°22'921.7
2018-Jun-17 15:30N 46°20' W 125°22'1121.5
2018-Jun-17 15:00N 46°31' W 125°22'1121.3
2018-Jun-17 14:30N 46°41' W 125°22'1121.2
2018-Jun-17 14:00N 46°52' W 125°22'1021.0
2018-Jun-17 13:30N 47°02' W 125°22'1019.8
2018-Jun-17 13:00N 47°12' W 125°21'1020.9
2018-Jun-17 12:30N 47°23' W 125°20'1121.1
2018-Jun-17 12:00N 47°33' W 125°20'1020.7
2018-Jun-17 11:30N 47°44' W 125°21'1021.0
2018-Jun-17 11:00N 47°54' W 125°21'1020.7
2018-Jun-17 10:30N 48°04' W 125°16'1120.9
2018-Jun-17 09:58N 48°15' W 125°11'1020.9
2018-Jun-17 09:30N 48°24' W 125°07'917.3
2018-Jun-17 09:00N 48°31' W 124°59'1121.5
2018-Jun-17 08:30N 48°31' W 124°43'1121.8
2018-Jun-17 08:00N 48°26' W 124°28'1121.9
2018-Jun-17 07:30N 48°21' W 124°13'1121.7
2018-Jun-17 07:00N 48°18' W 123°57'4318.0
2018-Jun-17 04:37N 48°12' W 122°54'820.1
2018-Jun-17 04:13N 48°09' W 122°43'520.0
2018-Jun-17 03:57N 48°04' W 122°39'920.2
2018-Jun-17 03:31N 47°56' W 122°32'1020.1
2018-Jun-17 03:00N 47°47' W 122°26'917.5
2018-Jun-17 02:31N 47°38' W 122°26'5 9.1
2018-Jun-17 02:00N 47°36' W 122°21'1 1.6
2018-Jun-17 01:30N 47°35' W 122°21'0 0.0
2018-Jun-17 01:01N 47°35' W 122°21'0 0.0
2018-Jun-17 00:27N 47°35' W 122°21'0 0.0
2018-Jun-17 00:00N 47°35' W 122°21'0 0.0
2018-Jun-16 23:30N 47°35' W 122°21'0 0.0
2018-Jun-16 23:00N 47°35' W 122°21'0 0.0
2018-Jun-16 22:30N 47°35' W 122°21'0 0.0
2018-Jun-16 22:00N 47°35' W 122°21'0 0.0
2018-Jun-16 21:30N 47°35' W 122°21'0 0.0
2018-Jun-16 21:00N 47°35' W 122°21'0 0.0
2018-Jun-16 20:30N 47°35' W 122°21'0 0.0
2018-Jun-16 20:00N 47°35' W 122°21'0 0.0
2018-Jun-16 19:30N 47°35' W 122°21'0 0.0
2018-Jun-16 19:00N 47°35' W 122°21'0 0.0
2018-Jun-16 18:30N 47°35' W 122°21'0 0.0
2018-Jun-16 17:51N 47°35' W 122°21'0 0.0
2018-Jun-16 17:30N 47°35' W 122°21'0 0.0
2018-Jun-16 17:00N 47°35' W 122°21'0 0.0
2018-Jun-16 16:21N 47°35' W 122°21'0 0.0
2018-Jun-16 16:00N 47°35' W 122°21'0 0.0
2018-Jun-16 15:30N 47°35' W 122°21'0 0.0
2018-Jun-16 15:00N 47°35' W 122°21'0 0.0
2018-Jun-16 14:27N 47°35' W 122°21'0 0.0
2018-Jun-16 13:51N 47°35' W 122°21'0 0.0
2018-Jun-16 13:27N 47°35' W 122°21'0 0.0
2018-Jun-16 13:00N 47°35' W 122°21'0 0.0
2018-Jun-16 12:30N 47°35' W 122°21'0 0.0
2018-Jun-16 12:00N 47°35' W 122°21'0 0.0
2018-Jun-16 11:30N 47°35' W 122°21'0 0.0
2018-Jun-16 11:00N 47°35' W 122°21'0 0.0
2018-Jun-16 10:30N 47°35' W 122°21'0 0.0
2018-Jun-16 10:00N 47°35' W 122°21'0 0.0
2018-Jun-16 09:30N 47°35' W 122°21'0 0.0
2018-Jun-16 09:00N 47°35' W 122°21'0 0.0
2018-Jun-16 08:30N 47°35' W 122°21'0 0.0
2018-Jun-16 08:00N 47°35' W 122°21'0 0.0
2018-Jun-16 07:30N 47°35' W 122°21'0 0.0
2018-Jun-16 07:00N 47°35' W 122°21'0 0.0
2018-Jun-16 06:30N 47°35' W 122°21'0 0.0
2018-Jun-16 06:00N 47°35' W 122°21'0 0.0
2018-Jun-16 05:30N 47°35' W 122°21'0 0.0
2018-Jun-16 05:00N 47°35' W 122°21'0 0.0
2018-Jun-16 04:30N 47°35' W 122°21'0 0.0
2018-Jun-16 04:00N 47°35' W 122°21'0 0.0
2018-Jun-16 03:30N 47°35' W 122°21'0 0.0
2018-Jun-16 03:00N 47°35' W 122°21'0 0.0
2018-Jun-16 02:27N 47°35' W 122°21'0 0.0
2018-Jun-16 02:00N 47°35' W 122°21'0 0.0
2018-Jun-16 01:24N 47°35' W 122°21'0 0.0
2018-Jun-16 01:00N 47°35' W 122°21'0 0.0
2018-Jun-16 00:30N 47°35' W 122°21'0 0.0
2018-Jun-16 00:00N 47°35' W 122°21'0 0.0
2018-Jun-15 23:27N 47°35' W 122°21'0 0.0
2018-Jun-15 23:00N 47°35' W 122°21'0 0.0
2018-Jun-15 22:30N 47°35' W 122°21'0 0.0
2018-Jun-15 22:00N 47°35' W 122°21'1 2.7
2018-Jun-15 21:30N 47°36' W 122°21'612.2
2018-Jun-15 21:00N 47°40' W 122°28'1020.8
2018-Jun-15 20:30N 47°50' W 122°28'1019.8
2018-Jun-15 20:00N 47°59' W 122°36'4616.4
2018-Jun-15 17:10N 48°13' W 123°43'517.9
2018-Jun-15 16:54N 48°13' W 123°50'718.6
2018-Jun-15 16:30N 48°15' W 124°00'919.0
2018-Jun-15 16:00N 48°19' W 124°13'918.7
2018-Jun-15 15:30N 48°23' W 124°26'918.3
2018-Jun-15 15:00N 48°27' W 124°39'918.2
2018-Jun-15 14:30N 48°29' W 124°52'917.6
2018-Jun-15 14:01N 48°25' W 125°04'91820.9
2018-Jun-13 18:00N 38°24' W 141°00'26522.1 160 / 41026.510.8 17.715.018.3
2018-Jun-13 06:00N 35°12' W 144°48'12821.3 200 / 111026.110.8 22.220.520.0
2018-Jun-13 00:00N 33°36' W 146°30'24420.3 160 / 111024.610.8 23.822.219.4
2018-Jun-12 12:00N 30°30' W 149°36'13222.0 200 / 391021.510.8 22.219.721.1
2018-Jun-12 06:00N 28°48' W 151°12'   130 / 281020.0 5.4 24.422.022.8

Dump ship's entire track history